createdAt,value
2018-11-02T00:00:09.277Z,14.65
2018-11-02T00:02:39.968Z,15.50
2018-11-02T00:05:10.249Z,16.17
2018-11-02T00:07:40.001Z,16.07
2018-11-02T00:10:09.825Z,10.13
2018-11-02T00:12:39.680Z,10.60
2018-11-02T00:15:11.083Z,8.60
2018-11-02T00:17:40.975Z,9.25
2018-11-02T00:20:10.662Z,8.65
2018-11-02T00:22:40.418Z,8.75
2018-11-02T00:25:10.543Z,8.60
2018-11-02T00:27:40.264Z,7.60
2018-11-02T00:30:10.141Z,7.75
2018-11-02T00:32:40.095Z,8.30
2018-11-02T00:35:10.248Z,8.33
2018-11-02T00:37:39.988Z,8.03
2018-11-02T00:40:09.771Z,7.80
2018-11-02T00:42:40.135Z,7.67
2018-11-02T00:45:11.354Z,7.50
2018-11-02T00:47:41.631Z,8.33
2018-11-02T00:50:12.541Z,7.83
2018-11-02T00:52:42.252Z,7.30
2018-11-02T00:55:12.541Z,8.10
2018-11-02T00:57:42.325Z,7.75
2018-11-02T01:00:15.204Z,6.30
2018-11-02T01:02:46.261Z,8.00
2018-11-02T01:05:16.822Z,8.18
2018-11-02T01:07:46.861Z,7.37
2018-11-02T01:10:16.632Z,6.60
2018-11-02T01:12:46.372Z,7.15
2018-11-02T01:15:16.814Z,7.35
2018-11-02T01:17:47.339Z,7.72
2018-11-02T01:20:17.261Z,7.47
2018-11-02T01:22:46.988Z,7.35
2018-11-02T01:25:16.730Z,7.50
2018-11-02T01:27:46.636Z,7.40
2018-11-02T01:30:17.354Z,8.20
2018-11-02T01:32:48.871Z,7.92
2018-11-02T01:35:19.126Z,8.40
2018-11-02T01:37:49.196Z,7.80
2018-11-02T01:40:19.040Z,7.50
2018-11-02T01:42:50.328Z,8.28
2018-11-02T01:45:20.141Z,8.20
2018-11-02T01:47:50.813Z,8.13
2018-11-02T01:50:20.572Z,8.30
2018-11-02T01:52:50.273Z,7.75
2018-11-02T01:55:20.178Z,7.27
2018-11-02T01:57:49.923Z,7.80
2018-11-02T02:00:20.423Z,8.03
2018-11-02T02:02:53.222Z,8.05
2018-11-02T02:05:22.961Z,6.90
2018-11-02T02:07:52.684Z,7.47
2018-11-02T02:10:22.450Z,7.93
2018-11-02T02:12:52.191Z,7.15
2018-11-02T02:15:21.918Z,7.17
2018-11-02T02:17:51.677Z,6.10
2018-11-02T02:20:21.599Z,7.42
2018-11-02T02:22:51.305Z,7.55
2018-11-02T02:25:21.057Z,7.67
2018-11-02T02:27:51.640Z,7.22
2018-11-02T02:30:21.841Z,6.90
2018-11-02T02:32:52.571Z,6.67
2018-11-02T02:35:22.309Z,6.87
2018-11-02T02:37:52.102Z,7.55
2018-11-02T02:40:21.844Z,7.20
2018-11-02T02:42:51.565Z,6.42
2018-11-02T02:45:21.509Z,6.95
2018-11-02T02:47:51.237Z,7.08
2018-11-02T02:50:20.925Z,7.30
2018-11-02T02:52:50.654Z,7.35
2018-11-02T02:55:20.363Z,7.30
2018-11-02T02:57:51.272Z,6.67
2018-11-02T03:00:21.595Z,6.62
2018-11-02T03:02:51.315Z,7.17
2018-11-02T03:05:21.073Z,6.62
2018-11-02T03:07:50.753Z,7.30
2018-11-02T03:10:20.534Z,6.93
2018-11-02T03:12:51.148Z,7.03
2018-11-02T03:15:22.515Z,7.17
2018-11-02T03:17:52.213Z,6.85
2018-11-02T03:20:21.921Z,7.30
2018-11-02T03:22:51.733Z,6.40
2018-11-02T03:25:21.916Z,6.50
2018-11-02T03:27:52.081Z,7.50
2018-11-02T03:30:22.255Z,6.30
2018-11-02T03:32:51.971Z,6.10
2018-11-02T03:35:21.815Z,6.10
2018-11-02T03:37:51.635Z,6.87
2018-11-02T03:40:21.348Z,5.70
2018-11-02T03:42:51.358Z,6.78
2018-11-02T03:45:22.061Z,6.85
2018-11-02T03:47:51.829Z,6.40
2018-11-02T03:50:21.829Z,6.80
2018-11-02T03:52:51.739Z,7.10
2018-11-02T03:55:21.531Z,5.90
2018-11-02T03:57:52.075Z,6.30
2018-11-02T04:00:21.743Z,7.15
2018-11-02T04:02:51.581Z,6.25
2018-11-02T04:05:21.286Z,6.70
2018-11-02T04:07:51.007Z,6.10
2018-11-02T04:10:20.753Z,6.40
2018-11-02T04:12:50.462Z,6.85
2018-11-02T04:15:20.195Z,6.35
2018-11-02T04:17:49.916Z,6.00
2018-11-02T04:20:19.611Z,6.20
2018-11-02T04:22:49.335Z,6.50
2018-11-02T04:25:19.132Z,6.37
2018-11-02T04:27:48.895Z,6.08
2018-11-02T04:30:19.319Z,6.25
2018-11-02T04:32:49.091Z,5.45
2018-11-02T04:35:18.794Z,6.03
2018-11-02T04:37:48.562Z,6.28
2018-11-02T04:40:19.252Z,6.27
2018-11-02T04:42:48.974Z,6.90
2018-11-02T04:45:50.539Z,6.92
2018-11-02T04:48:20.348Z,6.40
2018-11-02T04:50:51.389Z,6.78
2018-11-02T04:53:21.315Z,6.30
2018-11-02T04:55:52.002Z,6.67
2018-11-02T04:58:22.953Z,6.03
2018-11-02T05:00:53.692Z,6.17
2018-11-02T05:03:24.610Z,6.80
2018-11-02T05:05:54.311Z,6.42
2018-11-02T05:08:24.063Z,6.05
2018-11-02T05:10:53.885Z,6.37
2018-11-02T05:13:23.583Z,6.20
2018-11-02T05:15:54.773Z,7.03
2018-11-02T05:18:25.513Z,6.60
2018-11-02T05:20:55.275Z,6.50
2018-11-02T05:23:24.952Z,6.33
2018-11-02T05:25:54.681Z,6.17
2018-11-02T05:28:24.584Z,6.53
2018-11-02T05:30:55.688Z,6.30
2018-11-02T05:33:25.570Z,6.05
2018-11-02T05:35:55.811Z,6.10
2018-11-02T05:38:25.607Z,6.30
2018-11-02T05:40:55.356Z,7.10
2018-11-02T05:43:25.705Z,5.95
2018-11-02T05:45:55.388Z,7.00
2018-11-02T05:48:25.109Z,6.03
2018-11-02T05:50:54.839Z,6.35
2018-11-02T05:53:24.533Z,6.05
2018-11-02T05:55:54.264Z,6.90
2018-11-02T05:58:24.040Z,6.87
2018-11-02T06:00:53.807Z,6.47
2018-11-02T06:03:23.468Z,7.15
2018-11-02T06:05:53.200Z,6.40
2018-11-02T06:08:22.897Z,6.80
2018-11-02T06:10:52.709Z,5.90
2018-11-02T06:13:22.475Z,6.60
2018-11-02T06:15:52.704Z,6.47
2018-11-02T06:18:22.536Z,6.50
2018-11-02T06:20:52.223Z,6.83
2018-11-02T06:23:22.002Z,8.38
2018-11-02T06:25:51.764Z,7.15
2018-11-02T06:28:22.427Z,6.30
2018-11-02T06:30:52.214Z,7.35
2018-11-02T06:33:22.028Z,7.50
2018-11-02T06:35:51.757Z,7.33
2018-11-02T06:38:21.464Z,6.85
2018-11-02T06:40:51.572Z,6.90
2018-11-02T06:43:21.365Z,7.10
2018-11-02T06:45:51.227Z,6.72
2018-11-02T06:48:20.984Z,7.17
2018-11-02T06:50:50.815Z,6.60
2018-11-02T06:53:21.308Z,6.40
2018-11-02T06:55:51.807Z,7.10
2018-11-02T06:58:22.300Z,7.40
2018-11-02T07:00:52.046Z,7.20
2018-11-02T07:03:22.054Z,7.58
2018-11-02T07:05:52.011Z,7.87
2018-11-02T07:08:22.916Z,7.08
2018-11-02T07:10:53.334Z,7.07
2018-11-02T07:13:23.096Z,7.20
2018-11-02T07:15:52.817Z,6.40
2018-11-02T07:18:22.550Z,6.72
2018-11-02T07:20:52.386Z,7.45
2018-11-02T07:23:23.464Z,6.95
2018-11-02T07:25:53.172Z,7.20
2018-11-02T07:28:23.029Z,7.37
2018-11-02T07:30:52.948Z,6.70
2018-11-02T07:33:23.653Z,6.35
2018-11-02T07:35:53.379Z,6.85
2018-11-02T07:38:24.040Z,6.25
2018-11-02T07:40:54.040Z,6.23
2018-11-02T07:43:23.757Z,7.08
2018-11-02T07:45:53.629Z,5.90
2018-11-02T07:48:23.575Z,6.62
2018-11-02T07:50:53.296Z,7.47
2018-11-02T07:53:23.961Z,6.75
2018-11-02T07:55:53.699Z,7.40
2018-11-02T07:58:23.416Z,7.28
2018-11-02T08:00:53.157Z,7.35
2018-11-02T08:03:22.921Z,6.95
2018-11-02T08:05:53.921Z,6.22
2018-11-02T08:08:24.687Z,7.60
2018-11-02T08:10:54.541Z,6.00
2018-11-02T08:13:25.597Z,7.33
2018-11-02T08:15:55.461Z,6.58
2018-11-02T08:18:25.340Z,6.62
2018-11-02T08:20:55.099Z,6.85
2018-11-02T08:23:25.005Z,7.03
2018-11-02T08:25:54.692Z,7.90
2018-11-02T08:28:24.418Z,8.05
2018-11-02T08:30:54.121Z,6.92
2018-11-02T08:33:23.849Z,7.37
2018-11-02T08:35:54.398Z,6.85
2018-11-02T08:38:24.283Z,7.72
2018-11-02T08:40:54.281Z,7.10
2018-11-02T08:43:24.054Z,7.20
2018-11-02T08:45:53.802Z,7.83
2018-11-02T08:48:24.519Z,7.87
2018-11-02T08:50:54.681Z,8.90
2018-11-02T08:53:25.680Z,7.35
2018-11-02T08:55:55.544Z,8.07
2018-11-02T08:58:25.594Z,7.67
2018-11-02T09:00:55.160Z,9.35
2018-11-02T09:03:24.892Z,8.33
2018-11-02T09:05:55.798Z,9.65
2018-11-02T09:08:25.850Z,7.95
2018-11-02T09:10:55.584Z,7.70
2018-11-02T09:13:25.369Z,8.05
2018-11-02T09:15:55.140Z,7.90
2018-11-02T09:18:25.445Z,7.87
2018-11-02T09:20:56.948Z,8.33
2018-11-02T09:23:27.074Z,9.13
2018-11-02T09:25:57.746Z,7.67
2018-11-02T09:28:27.615Z,7.65
2018-11-02T09:30:57.349Z,8.08
2018-11-02T09:33:27.177Z,9.70
2018-11-02T09:35:57.779Z,8.25
2018-11-02T09:38:27.920Z,7.85
2018-11-02T09:40:57.705Z,9.57
2018-11-02T09:43:27.462Z,8.98
2018-11-02T09:46:00.277Z,8.20
2018-11-02T09:48:30.177Z,8.10
2018-11-02T09:51:00.369Z,8.13
2018-11-02T09:53:30.964Z,7.95
2018-11-02T09:56:01.119Z,9.13
2018-11-02T09:58:31.810Z,8.05
2018-11-02T10:01:02.081Z,8.70
2018-11-02T10:03:31.738Z,8.10
2018-11-02T10:06:03.640Z,10.28
2018-11-02T10:08:33.503Z,9.80
2018-11-02T10:11:03.249Z,9.00
2018-11-02T10:13:33.025Z,8.25
2018-11-02T10:16:02.848Z,9.55
2018-11-02T10:18:33.394Z,9.33
2018-11-02T10:21:03.395Z,8.35
2018-11-02T10:23:33.199Z,9.13
2018-11-02T10:26:03.208Z,9.35
2018-11-02T10:28:33.051Z,9.90
2018-11-02T10:31:03.838Z,9.83
2018-11-02T10:33:33.674Z,9.58
2018-11-02T10:36:07.297Z,9.78
2018-11-02T10:38:37.121Z,9.73
2018-11-02T10:41:07.251Z,9.40
2018-11-02T10:44:31.203Z,9.97
2018-11-02T10:47:03.249Z,9.27
2018-11-02T10:49:33.298Z,9.57
2018-11-02T10:52:03.088Z,10.90
2018-11-02T10:54:33.342Z,10.57
2018-11-02T10:57:03.110Z,11.20
2018-11-02T10:59:32.875Z,9.80
2018-11-02T11:02:06.740Z,9.90
2018-11-02T11:04:37.130Z,10.23
2018-11-02T11:07:06.869Z,10.90
2018-11-02T11:09:36.766Z,11.27
2018-11-02T11:12:06.727Z,10.68
2018-11-02T11:14:36.508Z,11.03
2018-11-02T11:17:06.291Z,12.03
2018-11-02T11:19:36.135Z,11.80
2018-11-02T11:22:05.868Z,11.40
2018-11-02T11:24:35.658Z,11.17
2018-11-02T11:27:05.476Z,11.90
2018-11-02T11:29:35.413Z,12.50
2018-11-02T11:32:05.562Z,13.17
2018-11-02T11:34:35.442Z,12.28
2018-11-02T11:37:05.730Z,11.30
2018-11-02T11:39:35.519Z,12.23
2018-11-02T11:42:05.749Z,11.38
2018-11-02T11:44:35.573Z,11.90
2018-11-02T11:47:05.487Z,11.67
2018-11-02T11:49:35.269Z,12.70
2018-11-02T11:52:05.453Z,12.23
2018-11-02T11:54:35.301Z,12.00
2018-11-02T11:57:05.292Z,11.13
2018-11-02T11:59:35.154Z,12.47
2018-11-02T12:02:04.997Z,12.43
2018-11-02T12:04:34.773Z,12.03
2018-11-02T12:07:04.591Z,12.78
2018-11-02T12:09:34.524Z,12.97
2018-11-02T12:12:04.376Z,12.97
2018-11-02T12:14:34.163Z,12.60
2018-11-02T12:17:04.080Z,12.90
2018-11-02T12:19:34.078Z,12.27
2018-11-02T12:22:03.905Z,12.33
2018-11-02T12:24:33.802Z,12.70
2018-11-02T12:27:03.669Z,13.87
2018-11-02T12:29:33.382Z,13.30
2018-11-02T12:32:03.330Z,13.40
2018-11-02T12:34:33.098Z,11.67
2018-11-02T12:37:03.006Z,12.80
2018-11-02T12:39:32.649Z,12.13
2018-11-02T12:42:02.459Z,13.57
2018-11-02T12:44:32.614Z,12.23
2018-11-02T12:47:02.410Z,12.07
2018-11-02T12:49:32.678Z,11.83
2018-11-02T12:52:01.991Z,13.60
2018-11-02T12:54:31.851Z,12.70
2018-11-02T12:57:01.713Z,13.67
2018-11-02T12:59:31.491Z,13.60
2018-11-02T13:02:01.416Z,12.30
2018-11-02T13:04:31.175Z,12.27
2018-11-02T13:07:01.056Z,12.57
2018-11-02T13:09:31.394Z,13.70
2018-11-02T13:12:01.879Z,13.00
2018-11-02T13:14:32.377Z,13.83
2018-11-02T13:17:03.108Z,12.77
2018-11-02T13:19:33.808Z,12.83
2018-11-02T13:22:04.320Z,14.57
2018-11-02T13:24:34.369Z,13.07
2018-11-02T13:27:04.438Z,12.40
2018-11-02T13:29:34.581Z,12.57
2018-11-02T13:32:04.878Z,12.80
2018-11-02T13:34:35.019Z,13.13
2018-11-02T13:37:06.587Z,12.90
2018-11-02T13:39:36.531Z,12.80
2018-11-02T13:42:06.888Z,12.60
2018-11-02T13:44:37.088Z,13.13
2018-11-02T13:47:06.830Z,13.40
2018-11-02T13:49:36.619Z,12.57
2018-11-02T13:52:07.615Z,12.60
2018-11-02T13:54:37.506Z,13.03
2018-11-02T13:57:07.531Z,14.37
2018-11-02T13:59:37.527Z,14.27
2018-11-02T14:02:08.085Z,13.67
2018-11-02T14:04:37.951Z,12.30
2018-11-02T14:07:07.699Z,11.80
2018-11-02T14:09:37.466Z,13.13
2018-11-02T14:12:07.189Z,13.93
2018-11-02T14:14:36.929Z,12.00
2018-11-02T14:17:06.685Z,11.70
2018-11-02T14:19:39.323Z,11.43
2018-11-02T14:22:09.212Z,10.53
2018-11-02T14:24:38.922Z,10.27
2018-11-02T14:27:08.657Z,11.37
2018-11-02T14:29:38.478Z,10.20
2018-11-02T14:32:08.152Z,9.53
2018-11-02T14:34:37.884Z,9.60
2018-11-02T14:37:07.638Z,9.90
2018-11-02T14:39:37.361Z,8.60
2018-11-02T14:42:07.311Z,9.60
2018-11-02T14:44:37.025Z,9.67
2018-11-02T14:47:06.883Z,9.47
2018-11-02T14:49:36.670Z,9.07
2018-11-02T14:52:07.562Z,9.83
2018-11-02T14:54:37.375Z,9.13
2018-11-02T14:57:07.151Z,7.67
2018-11-02T14:59:36.933Z,8.90
2018-11-02T15:02:06.688Z,10.50
2018-11-02T15:04:36.517Z,12.13
2018-11-02T15:07:06.586Z,9.90
2018-11-02T15:09:36.326Z,8.90
2018-11-02T15:12:06.458Z,9.20
2018-11-02T15:14:36.398Z,9.90
2018-11-02T15:17:06.581Z,10.30
2018-11-02T15:19:36.798Z,9.67
2018-11-02T15:22:06.700Z,9.80
2018-11-02T15:24:36.528Z,10.53
2018-11-02T15:27:06.566Z,10.17
2018-11-02T15:29:36.398Z,9.60
2018-11-02T15:32:06.407Z,10.30
2018-11-02T15:34:36.603Z,9.43
2018-11-02T15:37:06.337Z,9.87
2018-11-02T15:39:36.056Z,10.40
2018-11-02T15:42:06.000Z,12.80
2018-11-02T15:44:35.848Z,11.93
2018-11-02T15:47:05.801Z,12.73
2018-11-02T15:49:35.628Z,13.07
2018-11-02T15:52:05.391Z,12.90
2018-11-02T15:54:35.162Z,14.67
2018-11-02T15:57:05.732Z,14.17
2018-11-02T15:59:36.690Z,14.77
2018-11-02T16:02:07.062Z,12.33
2018-11-02T16:04:36.827Z,13.77
2018-11-02T16:07:07.255Z,13.63
2018-11-02T16:09:37.218Z,14.60
2018-11-02T16:12:07.012Z,14.17
2018-11-02T16:14:36.744Z,14.10
2018-11-02T16:17:06.590Z,14.77
2018-11-02T16:19:36.294Z,14.77
2018-11-02T16:22:06.126Z,15.40
2018-11-02T16:24:35.865Z,15.00
2018-11-02T16:27:05.574Z,15.77
2018-11-02T16:29:35.303Z,15.47
2018-11-02T16:32:05.116Z,16.23
2018-11-02T16:34:34.870Z,15.33
2018-11-02T16:37:04.793Z,15.20
2018-11-02T16:39:34.537Z,16.42
2018-11-02T16:42:04.308Z,16.77
2018-11-02T16:44:34.254Z,15.23
2018-11-02T16:47:03.885Z,17.10
2018-11-02T16:49:33.980Z,16.67
2018-11-02T16:52:03.947Z,15.00
2018-11-02T16:54:33.739Z,15.70
2018-11-02T16:57:03.522Z,16.17
2018-11-02T16:59:33.273Z,17.80
2018-11-02T17:02:03.083Z,17.95
2018-11-02T17:04:32.960Z,17.65
2018-11-02T17:07:02.779Z,19.00
2018-11-02T17:09:32.597Z,20.60
2018-11-02T17:12:02.600Z,19.60
2018-11-02T17:14:32.314Z,19.10
2018-11-02T17:17:02.083Z,18.45
2018-11-02T17:19:31.809Z,17.17
2018-11-02T17:22:01.590Z,19.07
2018-11-02T17:24:31.353Z,17.80
2018-11-02T17:27:01.134Z,17.67
2018-11-02T17:29:30.898Z,17.67
2018-11-02T17:32:01.462Z,17.57
2018-11-02T17:34:31.315Z,19.07
2018-11-02T17:37:01.228Z,19.83
2018-11-02T17:39:30.963Z,17.90
2018-11-02T17:42:00.764Z,19.87
2018-11-02T17:44:30.505Z,17.70
2018-11-02T17:47:00.235Z,21.12
2018-11-02T17:49:29.975Z,18.82
2018-11-02T17:51:59.693Z,18.65
2018-11-02T17:54:29.817Z,22.75
2018-11-02T17:56:59.545Z,26.45
2018-11-02T17:59:29.323Z,23.30
2018-11-02T18:01:59.704Z,23.47
2018-11-02T18:04:29.402Z,24.85
2018-11-02T18:06:59.160Z,28.03
2018-11-02T18:09:28.926Z,25.30
2018-11-02T18:11:58.660Z,26.68
2018-11-02T18:14:28.427Z,25.05
2018-11-02T18:16:58.743Z,25.45
2018-11-02T18:19:28.609Z,24.75
2018-11-02T18:21:59.072Z,24.85
2018-11-02T18:24:29.965Z,24.17
2018-11-02T18:27:00.437Z,26.97
2018-11-02T18:29:30.756Z,28.47
2018-11-02T18:32:01.363Z,24.35
2018-11-02T18:34:31.737Z,21.80
2018-11-02T18:37:01.575Z,18.52
2018-11-02T18:39:31.842Z,37.53
2018-11-02T18:42:02.195Z,50.00
2018-11-02T18:44:31.951Z,23.55
2018-11-02T18:47:03.294Z,20.23
2018-11-02T18:49:33.657Z,19.05
2018-11-02T18:52:03.373Z,18.62
2018-11-02T18:54:33.229Z,19.77
2018-11-02T18:57:03.009Z,32.05
2018-11-02T18:59:32.790Z,21.30
2018-11-02T19:02:02.542Z,21.05
2018-11-02T19:04:32.315Z,21.50
2018-11-02T19:07:02.025Z,22.70
2018-11-02T19:09:31.809Z,20.95
2018-11-02T19:12:01.563Z,20.68
2018-11-02T19:14:31.292Z,23.50
2018-11-02T19:17:01.058Z,21.87
2018-11-02T19:19:30.834Z,24.00
2018-11-02T19:22:00.545Z,23.42
2018-11-02T19:24:30.332Z,22.93
2018-11-02T19:27:00.182Z,23.00
2018-11-02T19:29:29.942Z,41.50
2018-11-02T19:31:59.757Z,44.60
2018-11-02T19:34:29.589Z,28.55
2018-11-02T19:36:59.242Z,22.87
2018-11-02T19:39:29.495Z,21.12
2018-11-02T19:41:59.246Z,30.08
2018-11-02T19:44:29.011Z,26.55
2018-11-02T19:46:58.767Z,28.20
2018-11-02T19:49:28.558Z,30.65
2018-11-02T19:51:59.054Z,31.35
2018-11-02T19:54:28.807Z,40.63
2018-11-02T19:56:59.355Z,38.13
2018-11-02T19:59:30.007Z,41.80
2018-11-02T20:01:59.743Z,29.50
2018-11-02T20:04:29.699Z,27.62
2018-11-02T20:06:59.444Z,25.30
2018-11-02T20:09:29.309Z,19.62
2018-11-02T20:11:58.977Z,21.20
2018-11-02T20:14:28.749Z,19.95
2018-11-02T20:16:58.441Z,19.60
2018-11-02T20:19:28.396Z,21.30
2018-11-02T20:21:58.246Z,21.35
2018-11-02T20:24:27.990Z,20.12
2018-11-02T20:26:58.629Z,22.35
2018-11-02T20:29:29.355Z,21.95
2018-11-02T20:31:59.257Z,22.55
2018-11-02T20:34:28.895Z,23.92
2018-11-02T20:36:58.678Z,24.25
2018-11-02T20:39:28.516Z,21.30
2018-11-02T20:41:58.237Z,23.05
2018-11-02T20:44:28.009Z,22.42
2018-11-02T20:46:57.852Z,22.07
2018-11-02T20:49:27.591Z,21.52
2018-11-02T20:51:57.394Z,25.17
2018-11-02T20:54:27.147Z,22.80
2018-11-02T20:56:57.329Z,20.68
2018-11-02T20:59:27.059Z,19.23
2018-11-02T21:01:57.293Z,20.02
2018-11-02T21:04:27.152Z,22.00
2018-11-02T21:06:56.882Z,21.12
2018-11-02T21:09:27.264Z,18.80
2018-11-02T21:11:56.948Z,18.77
2018-11-02T21:14:26.796Z,18.85
2018-11-02T21:16:56.509Z,18.90
2018-11-02T21:19:26.246Z,20.20
2018-11-02T21:21:56.088Z,19.25
2018-11-02T21:24:25.752Z,19.30
2018-11-02T21:26:55.550Z,18.42
2018-11-02T21:29:25.252Z,18.82
2018-11-02T21:31:54.998Z,17.85
2018-11-02T21:34:24.920Z,18.73
2018-11-02T21:36:54.652Z,18.60
2018-11-02T21:39:24.385Z,19.32
2018-11-02T21:41:54.173Z,18.95
2018-11-02T21:44:23.930Z,18.00
2018-11-02T21:46:53.719Z,18.27
2018-11-02T21:49:23.420Z,20.60
2018-11-02T21:51:53.206Z,22.98
2018-11-02T21:54:22.944Z,25.85
2018-11-02T21:56:52.670Z,25.75
2018-11-02T21:59:22.451Z,24.07
2018-11-02T22:01:52.192Z,22.48
2018-11-02T22:04:21.936Z,20.35
2018-11-02T22:06:51.726Z,17.77
2018-11-02T22:09:22.676Z,20.12
2018-11-02T22:11:52.411Z,20.43
2018-11-02T22:14:22.161Z,19.73
2018-11-02T22:16:51.889Z,17.87
2018-11-02T22:19:22.324Z,17.17
2018-11-02T22:21:52.019Z,18.23
2018-11-02T22:24:22.090Z,16.55
2018-11-02T22:26:52.634Z,17.92
2018-11-02T22:29:22.399Z,17.67
2018-11-02T22:31:53.070Z,18.20
2018-11-02T22:34:22.796Z,18.12
2018-11-02T22:36:52.526Z,18.67
2018-11-02T22:39:22.338Z,18.12
2018-11-02T22:41:52.139Z,18.45
2018-11-02T22:44:21.853Z,17.60
2018-11-02T22:46:51.664Z,19.00
2018-11-02T22:49:21.392Z,16.70
2018-11-02T22:51:51.202Z,17.90
2018-11-02T22:54:20.974Z,17.45
2018-11-02T22:56:50.858Z,17.00
2018-11-02T22:59:21.119Z,17.25
2018-11-02T23:01:50.862Z,17.50
2018-11-02T23:04:20.686Z,16.95
2018-11-02T23:06:50.457Z,16.50
2018-11-02T23:09:20.182Z,17.73
2018-11-02T23:11:49.902Z,16.03
2018-11-02T23:14:19.627Z,15.83
2018-11-02T23:16:49.463Z,13.80
2018-11-02T23:19:19.295Z,15.70
2018-11-02T23:21:49.028Z,15.78
2018-11-02T23:24:18.780Z,15.48
2018-11-02T23:26:48.512Z,15.77
2018-11-02T23:29:18.279Z,15.65
2018-11-02T23:31:47.954Z,13.93
2018-11-02T23:34:17.678Z,15.13
2018-11-02T23:36:47.448Z,15.80
2018-11-02T23:39:17.154Z,15.78
2018-11-02T23:41:48.332Z,15.90
2018-11-02T23:44:18.026Z,14.68
2018-11-02T23:46:47.778Z,15.00
2018-11-02T23:49:17.456Z,15.25
2018-11-02T23:51:47.198Z,14.55
2018-11-02T23:54:16.910Z,14.80
2018-11-02T23:56:46.639Z,14.57
2018-11-02T23:59:16.366Z,14.40
